Time;durP1;ratioP1;P1;durP2;ratioP2;P2;SDS_P1;SDS_P2;PMS_P1;PMS_P2;Temp;Humidity;BMP_temperature;BMP_pressure;BME280_temperature;BME280_humidity;BME280_pressure;Samples;Min_cycle;Max_cycle;Signal;HPM_P1;HPM_P2
2023/03/19 00:00:27;;;;;;;0.20;0.10;;;;;;;;;;4994869;28;20687;-75
2023/03/19 00:02:53;;;;;;;0.20;0.10;;;;;;;;;;4990797;28;20042;-75
2023/03/19 00:05:19;;;;;;;0.20;0.10;;;;;;;;;;4994179;28;20069;-76
2023/03/19 00:07:45;;;;;;;0.20;0.10;;;;;;;;;;5000496;28;20630;-75
2023/03/19 00:10:11;;;;;;;0.20;0.08;;;;;;;;;;4996578;28;20105;-75
2023/03/19 00:12:37;;;;;;;0.20;0.00;;;;;;;;;;4986852;28;20041;-75
2023/03/19 00:15:06;;;;;;;0.20;0.08;;;;;;;;;;4974365;28;20041;-76
2023/03/19 00:17:32;;;;;;;0.20;0.10;;;;;;;;;;5004629;28;20617;-75
2023/03/19 00:19:58;;;;;;;0.20;0.10;;;;;;;;;;4984921;28;20066;-74
2023/03/19 00:22:24;;;;;;;0.20;0.10;;;;;;;;;;4996887;28;20050;-74
2023/03/19 00:24:51;;;;;;;0.20;0.08;;;;;;;;;;4995847;28;20056;-75
2023/03/19 00:27:17;;;;;;;0.20;0.10;;;;;;;;;;4998647;28;20052;-75
2023/03/19 00:29:43;;;;;;;0.52;0.25;;;;;;;;;;5002779;28;20033;-76
2023/03/19 00:32:09;;;;;;;0.20;0.10;;;;;;;;;;4975173;28;20053;-75
2023/03/19 00:34:35;;;;;;;0.20;0.00;;;;;;;;;;4989239;28;20103;-75
2023/03/19 00:37:01;;;;;;;0.30;0.20;;;;;;;;;;5005836;28;20068;-76
2023/03/19 00:39:27;;;;;;;0.20;0.10;;;;;;;;;;4992900;28;20891;-76
2023/03/19 00:41:53;;;;;;;0.20;0.10;;;;;;;;;;5002706;28;20056;-75
2023/03/19 00:44:19;;;;;;;0.20;0.00;;;;;;;;;;4998469;28;20426;-75
2023/03/19 00:46:45;;;;;;;0.20;0.20;;;;;;;;;;4982833;28;20156;-75
2023/03/19 00:49:11;;;;;;;0.20;0.05;;;;;;;;;;4996756;28;20412;-75
2023/03/19 00:51:42;;;;;;;0.20;0.03;;;;;;;;;;4973512;28;20347;-76
2023/03/19 00:54:08;;;;;;;0.20;0.00;;;;;;;;;;4996633;28;20049;-75
2023/03/19 00:56:34;;;;;;;0.20;0.15;;;;;;;;;;4975948;28;20030;-74
2023/03/19 00:59:00;;;;;;;0.20;0.10;;;;;;;;;;4996697;28;20179;-75
2023/03/19 01:01:26;;;;;;;0.20;0.10;;;;;;;;;;4993934;28;20473;-75
2023/03/19 01:03:52;;;;;;;0.20;0.10;;;;;;;;;;4996539;28;20087;-75
2023/03/19 01:06:18;;;;;;;0.20;0.10;;;;;;;;;;4972997;28;20046;-76
2023/03/19 01:08:44;;;;;;;0.20;0.10;;;;;;;;;;4990059;28;20053;-75
2023/03/19 01:11:15;;;;;;;0.20;0.10;;;;;;;;;;4972970;28;20664;-75
2023/03/19 01:13:42;;;;;;;0.20;0.10;;;;;;;;;;4989783;28;20457;-75
2023/03/19 01:16:08;;;;;;;0.20;0.03;;;;;;;;;;4993781;28;20128;-75
2023/03/19 01:18:34;;;;;;;2.30;0.75;;;;;;;;;;4974189;28;20073;-75
2023/03/19 01:21:00;;;;;;;0.20;0.10;;;;;;;;;;4982582;28;20038;-75
2023/03/19 01:23:26;;;;;;;0.20;0.10;;;;;;;;;;4976552;28;20045;-75
2023/03/19 01:25:52;;;;;;;0.30;0.20;;;;;;;;;;4984912;28;20045;-75
2023/03/19 01:28:19;;;;;;;0.30;0.20;;;;;;;;;;4989565;28;20462;-75
2023/03/19 01:30:45;;;;;;;0.20;0.10;;;;;;;;;;4995477;28;20053;-75
2023/03/19 01:33:11;;;;;;;0.20;0.00;;;;;;;;;;4982043;28;20045;-75
2023/03/19 01:35:38;;;;;;;0.20;0.10;;;;;;;;;;4977143;28;20097;-75
2023/03/19 01:38:04;;;;;;;0.20;0.10;;;;;;;;;;4996288;28;20639;-75
2023/03/19 01:40:32;;;;;;;0.20;0.20;;;;;;;;;;4984672;28;20569;-75
2023/03/19 01:43:12;;;;;;;0.45;0.30;;;;;;;;;;5002698;28;20107;-74
2023/03/19 01:45:39;;;;;;;0.20;0.10;;;;;;;;;;5005831;28;20176;-75
2023/03/19 01:48:06;;;;;;;0.20;0.10;;;;;;;;;;4987552;28;20591;-75
2023/03/19 01:50:42;;;;;;;0.20;0.10;;;;;;;;;;5001829;28;20042;-75
2023/03/19 01:53:09;;;;;;;0.30;0.30;;;;;;;;;;5004924;28;20506;-75
2023/03/19 01:55:35;;;;;;;0.20;0.10;;;;;;;;;;5007725;28;20128;-74
2023/03/19 01:58:02;;;;;;;0.20;0.10;;;;;;;;;;4983397;28;20125;-76
2023/03/19 02:00:29;;;;;;;0.30;0.20;;;;;;;;;;5009239;28;20044;-75
2023/03/19 02:02:58;;;;;;;0.35;0.15;;;;;;;;;;4978432;28;20065;-75
2023/03/19 02:05:25;;;;;;;0.20;0.00;;;;;;;;;;4990717;28;20045;-75
2023/03/19 02:08:00;;;;;;;0.20;0.10;;;;;;;;;;5004340;28;20038;-75
2023/03/19 02:10:27;;;;;;;0.20;0.10;;;;;;;;;;4971678;28;20096;-74
2023/03/19 02:12:53;;;;;;;0.30;0.10;;;;;;;;;;5006125;28;20047;-74
2023/03/19 02:15:19;;;;;;;0.22;0.13;;;;;;;;;;4972913;28;20327;-74
2023/03/19 02:17:46;;;;;;;0.20;0.10;;;;;;;;;;4975591;28;20100;-74
2023/03/19 02:20:26;;;;;;;0.25;0.20;;;;;;;;;;4994853;28;20128;-75
2023/03/19 02:22:58;;;;;;;0.20;0.17;;;;;;;;;;4999479;28;20513;-75
2023/03/19 02:25:28;;;;;;;0.20;0.10;;;;;;;;;;4976152;28;20076;-74
2023/03/19 02:27:54;;;;;;;0.30;0.25;;;;;;;;;;4992929;28;20161;-75
2023/03/19 02:30:21;;;;;;;0.20;0.13;;;;;;;;;;4998648;28;20188;-76
2023/03/19 02:32:47;;;;;;;0.20;0.10;;;;;;;;;;4984437;28;20042;-75
2023/03/19 02:35:13;;;;;;;0.20;0.10;;;;;;;;;;4998969;28;20048;-75
2023/03/19 02:37:40;;;;;;;0.20;0.10;;;;;;;;;;4996386;28;20042;-75
2023/03/19 02:40:12;;;;;;;0.20;0.10;;;;;;;;;;4998245;28;20041;-75
2023/03/19 02:42:38;;;;;;;0.20;0.00;;;;;;;;;;5002487;28;20096;-75
2023/03/19 02:45:04;;;;;;;0.20;0.10;;;;;;;;;;4998411;28;20049;-76
2023/03/19 02:47:30;;;;;;;0.20;0.10;;;;;;;;;;5002052;28;20037;-76
2023/03/19 02:49:56;;;;;;;0.20;0.10;;;;;;;;;;4987811;28;20100;-75
2023/03/19 02:52:22;;;;;;;0.20;0.10;;;;;;;;;;5000828;28;20737;-76
2023/03/19 02:54:48;;;;;;;0.20;0.20;;;;;;;;;;4989905;28;20034;-75
2023/03/19 02:57:15;;;;;;;0.20;0.10;;;;;;;;;;4974765;28;20530;-75
2023/03/19 02:59:41;;;;;;;0.20;0.10;;;;;;;;;;4980906;28;20078;-74
2023/03/19 03:02:07;;;;;;;0.20;0.10;;;;;;;;;;4996798;28;20038;-74
2023/03/19 03:04:35;;;;;;;0.20;0.10;;;;;;;;;;4987377;28;20441;-74
2023/03/19 03:07:02;;;;;;;0.20;0.00;;;;;;;;;;5000893;28;20060;-74
2023/03/19 03:09:28;;;;;;;0.20;0.10;;;;;;;;;;4997279;28;20312;-74
2023/03/19 03:11:54;;;;;;;0.20;0.10;;;;;;;;;;4996575;28;20421;-75
2023/03/19 03:14:20;;;;;;;0.47;0.25;;;;;;;;;;4977232;28;20042;-75
2023/03/19 03:16:46;;;;;;;0.20;0.10;;;;;;;;;;4982687;28;20517;-74
2023/03/19 03:19:12;;;;;;;0.20;0.10;;;;;;;;;;5005697;28;20073;-74
2023/03/19 03:21:38;;;;;;;0.20;0.10;;;;;;;;;;4997760;28;20046;-75
2023/03/19 03:24:05;;;;;;;0.20;0.10;;;;;;;;;;4993346;28;20074;-75
2023/03/19 03:26:31;;;;;;;0.20;0.10;;;;;;;;;;4996248;28;20107;-74
2023/03/19 03:28:57;;;;;;;0.20;0.10;;;;;;;;;;4988203;28;20521;-75
2023/03/19 03:31:23;;;;;;;0.20;0.10;;;;;;;;;;4998237;28;20037;-74
2023/03/19 03:33:49;;;;;;;0.20;0.10;;;;;;;;;;4972009;28;20683;-75
2023/03/19 03:36:15;;;;;;;0.20;0.00;;;;;;;;;;4977826;28;20061;-74
2023/03/19 03:38:41;;;;;;;0.20;0.00;;;;;;;;;;5003397;28;20041;-74
2023/03/19 03:41:07;;;;;;;0.20;0.10;;;;;;;;;;5003001;28;20038;-75
2023/03/19 03:43:33;;;;;;;0.20;0.10;;;;;;;;;;4993145;28;20685;-75
2023/03/19 03:45:59;;;;;;;0.30;0.20;;;;;;;;;;4999187;28;20072;-74
2023/03/19 03:48:25;;;;;;;0.20;0.10;;;;;;;;;;5003617;28;20494;-74
2023/03/19 03:50:51;;;;;;;0.20;0.10;;;;;;;;;;5005191;28;20400;-75
2023/03/19 03:53:17;;;;;;;0.20;0.10;;;;;;;;;;4987827;28;20133;-74
2023/03/19 03:55:43;;;;;;;0.20;0.10;;;;;;;;;;4999205;28;20033;-74
2023/03/19 03:58:11;;;;;;;0.20;0.03;;;;;;;;;;4996393;28;20125;-74
2023/03/19 04:00:38;;;;;;;0.20;0.10;;;;;;;;;;5000780;28;20141;-74
2023/03/19 04:03:04;;;;;;;0.20;0.10;;;;;;;;;;5000564;28;20037;-75
2023/03/19 04:05:31;;;;;;;0.20;0.10;;;;;;;;;;5007550;28;20354;-74
2023/03/19 04:07:57;;;;;;;0.20;0.00;;;;;;;;;;4987020;28;20137;-74
2023/03/19 04:10:23;;;;;;;0.20;0.10;;;;;;;;;;4972604;28;20053;-75
2023/03/19 04:12:49;;;;;;;0.28;0.28;;;;;;;;;;5006538;28;20564;-75
2023/03/19 04:15:15;;;;;;;0.20;0.10;;;;;;;;;;4996718;28;20050;-74
2023/03/19 04:17:42;;;;;;;0.20;0.10;;;;;;;;;;4985087;28;20045;-75
2023/03/19 04:20:08;;;;;;;0.20;0.10;;;;;;;;;;5004744;28;20038;-75
2023/03/19 04:22:35;;;;;;;0.20;0.10;;;;;;;;;;5006809;28;20084;-74
2023/03/19 04:25:01;;;;;;;0.38;0.38;;;;;;;;;;5001935;28;20042;-74
2023/03/19 04:27:27;;;;;;;0.20;0.05;;;;;;;;;;5000764;28;20052;-74
2023/03/19 04:29:53;;;;;;;0.20;0.00;;;;;;;;;;5005520;28;20041;-74
2023/03/19 04:32:19;;;;;;;0.20;0.00;;;;;;;;;;4996627;28;20052;-75
2023/03/19 04:34:45;;;;;;;0.20;0.10;;;;;;;;;;5011304;23;20514;-78
2023/03/19 04:37:12;;;;;;;0.20;0.15;;;;;;;;;;4960006;28;20061;-77
2023/03/19 04:39:38;;;;;;;0.20;0.00;;;;;;;;;;4970936;28;20049;-77
2023/03/19 04:42:04;;;;;;;0.20;0.10;;;;;;;;;;4977017;28;20074;-77
2023/03/19 04:44:31;;;;;;;0.20;0.10;;;;;;;;;;4965325;28;20740;-78
2023/03/19 04:46:57;;;;;;;0.20;0.10;;;;;;;;;;4962211;28;20130;-77
2023/03/19 04:49:23;;;;;;;0.20;0.10;;;;;;;;;;4961322;28;20046;-77
2023/03/19 04:51:50;;;;;;;0.20;0.10;;;;;;;;;;4962763;28;20616;-78
2023/03/19 04:54:16;;;;;;;0.20;0.10;;;;;;;;;;4962679;28;20073;-78
2023/03/19 04:56:42;;;;;;;0.20;0.10;;;;;;;;;;4979391;28;20042;-77
2023/03/19 04:59:09;;;;;;;0.20;0.10;;;;;;;;;;4977548;28;20046;-78
2023/03/19 05:01:35;;;;;;;0.20;0.10;;;;;;;;;;4964771;28;20407;-77
2023/03/19 05:04:01;;;;;;;0.20;0.10;;;;;;;;;;4961842;28;20035;-77
2023/03/19 05:06:28;;;;;;;0.20;0.10;;;;;;;;;;4945639;28;20146;-77
2023/03/19 05:08:54;;;;;;;0.20;0.10;;;;;;;;;;4979650;28;20423;-77
2023/03/19 05:11:20;;;;;;;0.20;0.10;;;;;;;;;;4974322;28;20129;-78
2023/03/19 05:13:46;;;;;;;0.20;0.10;;;;;;;;;;4945826;28;20109;-78
2023/03/19 05:16:12;;;;;;;0.20;0.08;;;;;;;;;;4978568;28;20089;-78
2023/03/19 05:18:39;;;;;;;0.20;0.00;;;;;;;;;;4962684;28;20038;-77
2023/03/19 05:21:05;;;;;;;0.20;0.10;;;;;;;;;;4963778;28;20081;-78
2023/03/19 05:23:31;;;;;;;0.20;0.10;;;;;;;;;;4961792;28;20043;-78
2023/03/19 05:25:59;;;;;;;0.20;0.03;;;;;;;;;;4979818;28;20038;-78
2023/03/19 05:28:25;;;;;;;0.20;0.00;;;;;;;;;;4963731;28;20045;-78
2023/03/19 05:30:51;;;;;;;0.20;0.10;;;;;;;;;;4976356;28;20423;-78
2023/03/19 05:33:17;;;;;;;0.20;0.10;;;;;;;;;;4973462;28;20047;-78
2023/03/19 05:35:44;;;;;;;0.20;0.10;;;;;;;;;;4961912;28;20107;-77
2023/03/19 05:38:10;;;;;;;0.20;0.10;;;;;;;;;;4960082;28;20038;-78
2023/03/19 05:40:36;;;;;;;0.20;0.10;;;;;;;;;;4957519;28;20044;-78
2023/03/19 05:43:03;;;;;;;0.20;0.10;;;;;;;;;;4960701;28;20034;-78
2023/03/19 05:45:29;;;;;;;0.20;0.00;;;;;;;;;;4962333;28;20163;-78
2023/03/19 05:47:55;;;;;;;0.20;0.00;;;;;;;;;;4965477;28;20075;-78
2023/03/19 05:50:21;;;;;;;0.20;0.00;;;;;;;;;;4977512;28;20053;-78
2023/03/19 05:52:47;;;;;;;0.20;0.10;;;;;;;;;;4961930;28;20066;-78
2023/03/19 05:55:13;;;;;;;0.20;0.10;;;;;;;;;;4964228;28;20104;-78
2023/03/19 05:57:40;;;;;;;0.20;0.10;;;;;;;;;;4945925;28;20129;-78
2023/03/19 06:00:07;;;;;;;0.20;0.10;;;;;;;;;;4961708;28;20412;-78
2023/03/19 06:02:33;;;;;;;0.20;0.03;;;;;;;;;;4958969;28;20035;-78
2023/03/19 06:04:59;;;;;;;0.20;0.05;;;;;;;;;;4976892;28;20042;-79
2023/03/19 06:07:25;;;;;;;0.20;0.00;;;;;;;;;;4963350;28;20046;-78
2023/03/19 06:09:51;;;;;;;0.20;0.10;;;;;;;;;;4959935;28;20042;-78
2023/03/19 06:12:17;;;;;;;0.20;0.00;;;;;;;;;;4960783;28;20392;-78
2023/03/19 06:14:46;;;;;;;0.40;0.35;;;;;;;;;;4963848;28;20648;-78
2023/03/19 06:17:12;;;;;;;0.20;0.10;;;;;;;;;;4963960;28;20477;-78
2023/03/19 06:19:38;;;;;;;0.20;0.10;;;;;;;;;;4961942;28;20520;-78
2023/03/19 06:22:04;;;;;;;0.20;0.10;;;;;;;;;;4946065;28;20115;-78
2023/03/19 06:24:30;;;;;;;0.20;0.00;;;;;;;;;;4962613;28;20440;-78
2023/03/19 06:26:56;;;;;;;0.20;0.10;;;;;;;;;;4960088;28;20050;-78
2023/03/19 06:29:22;;;;;;;0.20;0.00;;;;;;;;;;4958631;28;20042;-78
2023/03/19 06:31:48;;;;;;;0.20;0.00;;;;;;;;;;4941811;28;20415;-78
2023/03/19 06:34:14;;;;;;;0.20;0.00;;;;;;;;;;4962449;28;20050;-78
2023/03/19 06:36:40;;;;;;;0.20;0.00;;;;;;;;;;4959365;28;20221;-78
2023/03/19 06:39:06;;;;;;;0.20;0.00;;;;;;;;;;4960970;28;20056;-78
2023/03/19 06:41:32;;;;;;;0.20;0.05;;;;;;;;;;4955712;28;20434;-77
2023/03/19 06:43:58;;;;;;;0.20;0.00;;;;;;;;;;4939257;28;20062;-78
2023/03/19 06:46:24;;;;;;;0.20;0.10;;;;;;;;;;4957603;28;20399;-78
2023/03/19 06:48:50;;;;;;;0.20;0.10;;;;;;;;;;4954398;28;20050;-78
2023/03/19 06:51:16;;;;;;;0.20;0.00;;;;;;;;;;4966763;28;20046;-78
2023/03/19 06:53:42;;;;;;;0.20;0.10;;;;;;;;;;4955860;28;20070;-78
2023/03/19 06:56:09;;;;;;;0.20;0.10;;;;;;;;;;4951518;28;20039;-78
2023/03/19 06:58:36;;;;;;;0.20;0.00;;;;;;;;;;4950934;28;20482;-78
2023/03/19 07:01:02;;;;;;;0.20;0.00;;;;;;;;;;4955973;28;20043;-78
2023/03/19 07:03:28;;;;;;;0.20;0.10;;;;;;;;;;4972566;28;20046;-78
2023/03/19 07:05:54;;;;;;;0.30;0.30;;;;;;;;;;4969623;28;20042;-78
2023/03/19 07:08:20;;;;;;;0.20;0.10;;;;;;;;;;4948002;28;20097;-78
2023/03/19 07:10:46;;;;;;;0.20;0.10;;;;;;;;;;4962654;28;20129;-78
2023/03/19 07:13:12;;;;;;;0.20;0.10;;;;;;;;;;4942695;28;20507;-78
2023/03/19 07:15:39;;;;;;;0.20;0.10;;;;;;;;;;4924577;28;20411;-78
2023/03/19 07:18:05;;;;;;;0.20;0.10;;;;;;;;;;4943652;28;20054;-78
2023/03/19 07:20:31;;;;;;;0.20;0.00;;;;;;;;;;4948342;28;20166;-78
2023/03/19 07:22:57;;;;;;;0.20;0.00;;;;;;;;;;4948752;28;20051;-78
2023/03/19 07:25:23;;;;;;;0.20;0.00;;;;;;;;;;4938145;28;20121;-78
2023/03/19 07:27:49;;;;;;;0.20;0.10;;;;;;;;;;4955317;28;20051;-78
2023/03/19 07:30:15;;;;;;;0.20;0.10;;;;;;;;;;4939410;28;20034;-77
2023/03/19 07:32:42;;;;;;;0.20;0.10;;;;;;;;;;4953493;28;20046;-77
2023/03/19 07:35:09;;;;;;;0.20;0.10;;;;;;;;;;4952280;28;20125;-78
2023/03/19 07:37:35;;;;;;;0.20;0.10;;;;;;;;;;4948790;28;20142;-77
2023/03/19 07:40:02;;;;;;;0.20;0.10;;;;;;;;;;4944720;28;20149;-78
2023/03/19 07:42:28;;;;;;;0.20;0.10;;;;;;;;;;4948215;28;20117;-78
2023/03/19 07:44:54;;;;;;;0.20;0.10;;;;;;;;;;4947107;28;20551;-78
2023/03/19 07:47:20;;;;;;;0.20;0.10;;;;;;;;;;4945378;28;20121;-77
2023/03/19 07:49:46;;;;;;;0.20;0.10;;;;;;;;;;4945429;28;20141;-77
2023/03/19 07:52:13;;;;;;;0.20;0.00;;;;;;;;;;4946198;28;20043;-78
2023/03/19 07:54:39;;;;;;;0.20;0.10;;;;;;;;;;4946529;28;20454;-78
2023/03/19 07:57:05;;;;;;;0.20;0.10;;;;;;;;;;4935646;28;20125;-79
2023/03/19 07:59:31;;;;;;;0.20;0.10;;;;;;;;;;4952371;28;20074;-78
2023/03/19 08:01:57;;;;;;;0.20;0.10;;;;;;;;;;4954932;28;20035;-79
2023/03/19 08:04:23;;;;;;;0.20;0.10;;;;;;;;;;4956735;28;20505;-78
2023/03/19 08:06:49;;;;;;;0.35;0.10;;;;;;;;;;4951826;28;20047;-78
2023/03/19 08:09:15;;;;;;;0.20;0.10;;;;;;;;;;4955973;28;20047;-78
2023/03/19 08:11:41;;;;;;;0.20;0.10;;;;;;;;;;4954025;28;20450;-79
2023/03/19 08:14:07;;;;;;;0.65;0.65;;;;;;;;;;4951384;28;20081;-78
2023/03/19 08:16:33;;;;;;;0.20;0.10;;;;;;;;;;4946588;28;20452;-80
2023/03/19 08:18:59;;;;;;;0.20;0.10;;;;;;;;;;4949097;28;20488;-78
2023/03/19 08:21:26;;;;;;;0.20;0.10;;;;;;;;;;4950402;28;20031;-78
2023/03/19 08:23:52;;;;;;;0.57;0.57;;;;;;;;;;4952917;28;20527;-78
2023/03/19 08:26:18;;;;;;;0.20;0.10;;;;;;;;;;4969974;28;20130;-78
2023/03/19 08:28:44;;;;;;;0.52;0.47;;;;;;;;;;4951381;28;20042;-80
2023/03/19 08:31:11;;;;;;;0.20;0.20;;;;;;;;;;4955432;28;20678;-78
2023/03/19 08:33:38;;;;;;;0.20;0.10;;;;;;;;;;4955985;28;20047;-77
2023/03/19 08:36:08;;;;;;;0.73;0.73;;;;;;;;;;4954128;28;20194;-77
2023/03/19 08:38:34;;;;;;;0.20;0.10;;;;;;;;;;4961609;28;20054;-78
2023/03/19 08:41:03;;;;;;;0.73;0.52;;;;;;;;;;4962426;28;20130;-79
2023/03/19 08:43:29;;;;;;;0.20;0.10;;;;;;;;;;4958386;28;20042;-78
2023/03/19 08:45:55;;;;;;;0.20;0.10;;;;;;;;;;4959544;28;20122;-79
2023/03/19 08:48:21;;;;;;;0.20;0.10;;;;;;;;;;4938102;28;20638;-78
2023/03/19 08:50:51;;;;;;;0.52;0.52;;;;;;;;;;4957863;28;20125;-81
2023/03/19 08:53:17;;;;;;;1.95;0.40;;;;;;;;;;4956440;28;20174;-79
2023/03/19 08:55:44;;;;;;;0.20;0.10;;;;;;;;;;4956394;28;20043;-77
2023/03/19 08:58:09;;;;;;;0.20;0.10;;;;;;;;;;4956840;28;20511;-81
2023/03/19 09:00:35;;;;;;;0.20;0.10;;;;;;;;;;4955834;28;20035;-77
2023/03/19 09:03:02;;;;;;;0.20;0.10;;;;;;;;;;4969196;28;20030;-76
2023/03/19 09:05:28;;;;;;;0.45;0.38;;;;;;;;;;4939242;28;20508;-79
2023/03/19 09:07:54;;;;;;;0.20;0.10;;;;;;;;;;4968259;28;20543;-79
2023/03/19 09:10:20;;;;;;;0.68;0.68;;;;;;;;;;4955318;28;20051;-78
2023/03/19 09:12:46;;;;;;;0.20;0.10;;;;;;;;;;4951638;28;20537;-79
2023/03/19 09:15:12;;;;;;;0.20;0.10;;;;;;;;;;4978829;28;20046;-82
2023/03/19 09:17:38;;;;;;;0.50;0.50;;;;;;;;;;4957268;28;21061;-79
2023/03/19 09:20:06;;;;;;;0.20;0.10;;;;;;;;;;4953340;28;20716;-81
2023/03/19 09:22:32;;;;;;;0.20;0.13;;;;;;;;;;4940374;28;20034;-79
2023/03/19 09:24:58;;;;;;;0.57;0.20;;;;;;;;;;4946547;28;20053;-79
2023/03/19 09:27:24;;;;;;;0.70;0.40;;;;;;;;;;4962660;28;20043;-79
2023/03/19 09:29:50;;;;;;;0.20;0.00;;;;;;;;;;4962961;28;20054;-80
2023/03/19 09:32:16;;;;;;;0.20;0.20;;;;;;;;;;4961721;28;20049;-81
2023/03/19 09:34:42;;;;;;;0.30;0.20;;;;;;;;;;4950015;28;20527;-79
2023/03/19 09:37:10;;;;;;;0.20;0.08;;;;;;;;;;4961737;28;20384;-79
2023/03/19 09:39:36;;;;;;;0.20;0.10;;;;;;;;;;4930411;28;20039;-79
2023/03/19 09:42:12;;;;;;;0.20;0.10;;;;;;;;;;4957134;28;20043;-78
2023/03/19 09:44:44;;;;;;;0.73;0.30;;;;;;;;;;4959994;28;20046;-79
2023/03/19 09:47:10;;;;;;;0.55;0.25;;;;;;;;;;4962409;28;20041;-78
2023/03/19 09:49:44;;;;;;;0.20;0.10;;;;;;;;;;4974408;28;20054;-79
2023/03/19 09:52:25;;;;;;;0.25;0.25;;;;;;;;;;4947453;28;20364;-79
2023/03/19 09:54:53;;;;;;;0.28;0.20;;;;;;;;;;4962220;28;20075;-78
2023/03/19 09:57:19;;;;;;;0.20;0.20;;;;;;;;;;4963313;28;21383;-78
2023/03/19 09:59:46;;;;;;;0.20;0.03;;;;;;;;;;4960830;28;20038;-82
2023/03/19 10:02:15;;;;;;;0.20;0.10;;;;;;;;;;4957276;28;20101;-79
2023/03/19 10:04:54;;;;;;;0.22;0.22;;;;;;;;;;4962389;28;20035;-81
2023/03/19 10:07:23;;;;;;;0.32;0.32;;;;;;;;;;4963193;28;20038;-82
2023/03/19 10:10:12;;;;;;;0.55;0.25;;;;;;;;;;4940098;28;20043;-79
2023/03/19 10:12:44;;;;;;;0.20;0.00;;;;;;;;;;4944680;28;20047;-79
2023/03/19 10:15:30;;;;;;;0.38;0.20;;;;;;;;;;4976711;28;20458;-79
2023/03/19 10:17:58;;;;;;;0.20;0.00;;;;;;;;;;4942570;28;20530;-80
2023/03/19 10:20:30;;;;;;;0.20;0.17;;;;;;;;;;4943042;28;20046;-78
2023/03/19 10:23:03;;;;;;;0.20;0.20;;;;;;;;;;4956940;28;20070;-79
2023/03/19 10:25:30;;;;;;;0.20;0.10;;;;;;;;;;4945447;28;20125;-81
2023/03/19 10:28:00;;;;;;;1.30;1.20;;;;;;;;;;4961042;28;20112;-81
2023/03/19 10:30:26;;;;;;;0.20;0.05;;;;;;;;;;4941586;28;20093;-80
2023/03/19 10:32:54;;;;;;;0.20;0.00;;;;;;;;;;4961490;28;20049;-80
2023/03/19 10:35:27;;;;;;;0.20;0.00;;;;;;;;;;4978325;23;20057;-77
2023/03/19 10:37:54;;;;;;;0.20;0.10;;;;;;;;;;4970037;28;20080;-75
2023/03/19 10:40:23;;;;;;;0.20;0.10;;;;;;;;;;4986964;28;20042;-76
2023/03/19 10:42:56;;;;;;;0.20;0.10;;;;;;;;;;4990033;28;20042;-77
2023/03/19 10:45:35;;;;;;;0.20;0.20;;;;;;;;;;4986697;28;20045;-77
2023/03/19 10:48:02;;;;;;;0.20;0.20;;;;;;;;;;4975556;28;20425;-77
2023/03/19 10:50:30;;;;;;;0.20;0.15;;;;;;;;;;4975453;28;20084;-76
2023/03/19 10:53:14;;;;;;;0.30;0.20;;;;;;;;;;4963980;28;20073;-76
2023/03/19 10:55:59;;;;;;;0.20;0.10;;;;;;;;;;4974447;28;20053;-75
2023/03/19 10:58:27;;;;;;;0.20;0.10;;;;;;;;;;4959040;28;20121;-75
2023/03/19 11:00:58;;;;;;;0.65;0.63;;;;;;;;;;4975081;28;20037;-74
2023/03/19 11:03:31;;;;;;;0.20;0.00;;;;;;;;;;4976468;28;20081;-76
2023/03/19 11:06:17;;;;;;;0.20;0.10;;;;;;;;;;4957938;28;20073;-75
2023/03/19 11:08:43;;;;;;;0.20;0.10;;;;;;;;;;4981879;28;20038;-75
2023/03/19 11:11:22;;;;;;;0.20;0.10;;;;;;;;;;4965058;28;20724;-76
2023/03/19 11:13:49;;;;;;;0.20;0.20;;;;;;;;;;4974190;28;20128;-75
2023/03/19 11:16:15;;;;;;;0.30;0.20;;;;;;;;;;4974473;28;20373;-75
2023/03/19 11:18:41;;;;;;;1.05;0.20;;;;;;;;;;4964458;28;20038;-76
2023/03/19 11:21:08;;;;;;;0.20;0.00;;;;;;;;;;4953068;28;20039;-76
2023/03/19 11:23:39;;;;;;;0.20;0.10;;;;;;;;;;4961558;28;20038;-76
2023/03/19 11:26:06;;;;;;;0.20;0.10;;;;;;;;;;4972643;28;20034;-76
2023/03/19 11:28:32;;;;;;;0.93;0.85;;;;;;;;;;4976640;28;20160;-76
2023/03/19 11:31:06;;;;;;;0.20;0.10;;;;;;;;;;4981680;28;20085;-76
2023/03/19 11:33:44;;;;;;;0.73;0.47;;;;;;;;;;4974561;28;20128;-76
2023/03/19 11:36:13;;;;;;;0.43;0.20;;;;;;;;;;4963726;28;20121;-76
2023/03/19 11:38:57;;;;;;;0.20;0.10;;;;;;;;;;4976744;28;20385;-77
2023/03/19 11:41:31;;;;;;;0.57;0.30;;;;;;;;;;4981796;28;20034;-76
2023/03/19 11:44:03;;;;;;;0.57;0.57;;;;;;;;;;4961899;28;20039;-76
2023/03/19 11:46:34;;;;;;;0.20;0.20;;;;;;;;;;4982168;28;20026;-74
2023/03/19 11:49:08;;;;;;;0.20;0.10;;;;;;;;;;4986820;28;20045;-76
2023/03/19 11:51:50;;;;;;;0.20;0.03;;;;;;;;;;4970533;28;20046;-76
2023/03/19 11:54:19;;;;;;;0.52;0.52;;;;;;;;;;4963192;28;20073;-76
2023/03/19 11:56:49;;;;;;;0.20;0.10;;;;;;;;;;4979670;28;20491;-75
2023/03/19 11:59:18;;;;;;;0.20;0.10;;;;;;;;;;4965445;28;20442;-75
2023/03/19 12:01:53;;;;;;;0.20;0.10;;;;;;;;;;4989863;28;20057;-76
2023/03/19 12:04:26;;;;;;;1.42;0.20;;;;;;;;;;4967063;28;20136;-76
2023/03/19 12:06:52;;;;;;;;;;;;;;;;;;4965919;28;20066;-77
2023/03/19 12:09:29;;;;;;;0.20;0.10;;;;;;;;;;4986482;28;20377;-76
2023/03/19 12:12:14;;;;;;;0.20;0.10;;;;;;;;;;4979726;28;20384;-75
2023/03/19 12:14:43;;;;;;;0.20;0.15;;;;;;;;;;4960894;28;20240;-76
2023/03/19 12:17:28;;;;;;;0.20;0.10;;;;;;;;;;4979331;28;20042;-75
2023/03/19 12:20:02;;;;;;;0.30;0.30;;;;;;;;;;4983850;28;20505;-75
2023/03/19 12:22:31;;;;;;;0.30;0.20;;;;;;;;;;4980271;28;20068;-75
2023/03/19 12:25:03;;;;;;;0.30;0.30;;;;;;;;;;4975798;28;20522;-75
2023/03/19 12:27:38;;;;;;;0.60;0.50;;;;;;;;;;4977271;28;20050;-77
2023/03/19 12:30:25;;;;;;;0.20;0.00;;;;;;;;;;4979435;28;20046;-76
2023/03/19 12:32:52;;;;;;;0.30;0.20;;;;;;;;;;4978812;28;20137;-75
2023/03/19 12:35:21;;;;;;;0.30;0.30;;;;;;;;;;4963512;28;20046;-76
2023/03/19 12:37:59;;;;;;;0.20;0.10;;;;;;;;;;4957124;28;20123;-76
2023/03/19 12:40:32;;;;;;;0.20;0.10;;;;;;;;;;4984466;28;20128;-76
2023/03/19 12:42:58;;;;;;;0.20;0.10;;;;;;;;;;4979913;28;20030;-76
2023/03/19 12:45:27;;;;;;;1.80;0.57;;;;;;;;;;4979268;28;20089;-75
2023/03/19 12:47:59;;;;;;;0.20;0.10;;;;;;;;;;4965416;28;20045;-76
2023/03/19 12:50:26;;;;;;;0.20;0.10;;;;;;;;;;4981119;28;20125;-77
2023/03/19 12:52:54;;;;;;;0.77;0.30;;;;;;;;;;4979612;28;20342;-76
2023/03/19 12:55:35;;;;;;;0.20;0.10;;;;;;;;;;4975775;28;20613;-77
2023/03/19 12:58:01;;;;;;;0.20;0.10;;;;;;;;;;4988207;28;20695;-76
2023/03/19 13:00:34;;;;;;;0.20;0.10;;;;;;;;;;4965049;28;20113;-77
2023/03/19 13:03:07;;;;;;;0.20;0.00;;;;;;;;;;4979631;28;20054;-77
2023/03/19 13:05:36;;;;;;;0.20;0.10;;;;;;;;;;4980450;28;20034;-76
2023/03/19 13:08:21;;;;;;;0.20;0.00;;;;;;;;;;4974737;28;20042;-77
2023/03/19 13:10:47;;;;;;;0.20;0.10;;;;;;;;;;4978714;28;20070;-77
2023/03/19 13:13:52;;;;;;;0.20;0.10;;;;;;;;;;4983721;28;20081;-77
2023/03/19 13:16:18;;;;;;;0.20;0.10;;;;;;;;;;4888999;29;20135;-76
2023/03/19 13:18:50;;;;;;;0.20;0.00;;;;;;;;;;4913030;29;20047;-77
2023/03/19 13:21:31;;;;;;;0.20;0.10;;;;;;;;;;4925470;28;20061;-76
2023/03/19 13:24:16;;;;;;;0.20;0.10;;;;;;;;;;4981141;28;20042;-76
2023/03/19 13:26:42;;;;;;;0.20;0.00;;;;;;;;;;4972721;28;20511;-74
2023/03/19 13:29:13;;;;;;;0.20;0.08;;;;;;;;;;4976021;28;20041;-76
2023/03/19 13:31:40;;;;;;;0.20;0.10;;;;;;;;;;4981241;28;20046;-76
2023/03/19 13:34:17;;;;;;;0.20;0.10;;;;;;;;;;4975862;28;20070;-77
2023/03/19 13:36:45;;;;;;;0.20;0.10;;;;;;;;;;4982514;28;20041;-75
2023/03/19 13:39:14;;;;;;;0.30;0.30;;;;;;;;;;4979604;28;20042;-76
2023/03/19 13:41:41;;;;;;;0.22;0.10;;;;;;;;;;4980426;28;20421;-76
2023/03/19 13:44:19;;;;;;;0.20;0.10;;;;;;;;;;4970554;28;20565;-76
2023/03/19 13:46:45;;;;;;;0.30;0.20;;;;;;;;;;4980902;28;20045;-76
2023/03/19 13:49:44;;;;;;;0.20;0.10;;;;;;;;;;4955238;28;20177;-76
2023/03/19 13:52:10;;;;;;;0.20;0.10;;;;;;;;;;4954383;28;20140;-77
2023/03/19 13:54:40;;;;;;;0.20;0.10;;;;;;;;;;4970517;28;20407;-75
2023/03/19 13:57:12;;;;;;;0.20;0.00;;;;;;;;;;4971672;28;20085;-75
2023/03/19 13:59:39;;;;;;;0.20;0.10;;;;;;;;;;4964103;28;20038;-74
2023/03/19 14:02:21;;;;;;;0.20;0.10;;;;;;;;;;4968579;28;20457;-76
2023/03/19 14:04:56;;;;;;;0.30;0.15;;;;;;;;;;4976299;28;20033;-78
2023/03/19 14:07:25;;;;;;;0.20;0.20;;;;;;;;;;4955679;28;20042;-76
2023/03/19 14:09:58;;;;;;;0.85;0.55;;;;;;;;;;4988155;28;20438;-78
2023/03/19 14:12:38;;;;;;;0.20;0.10;;;;;;;;;;4978296;28;20630;-77
2023/03/19 14:15:15;;;;;;;0.40;0.20;;;;;;;;;;4975975;28;20042;-78
2023/03/19 14:17:45;;;;;;;0.25;0.20;;;;;;;;;;4963453;28;20485;-77
2023/03/19 14:20:15;;;;;;;0.20;0.10;;;;;;;;;;4970511;28;20050;-77
2023/03/19 14:22:44;;;;;;;0.40;0.20;;;;;;;;;;4976143;28;20392;-77
2023/03/19 14:25:14;;;;;;;0.30;0.28;;;;;;;;;;4979377;28;20030;-78
2023/03/19 14:27:43;;;;;;;0.20;0.00;;;;;;;;;;4976055;28;20061;-76
2023/03/19 14:30:15;;;;;;;0.43;0.40;;;;;;;;;;4981398;28;20049;-77
2023/03/19 14:32:42;;;;;;;0.20;0.17;;;;;;;;;;4979550;28;20045;-78
2023/03/19 14:35:14;;;;;;;0.20;0.10;;;;;;;;;;4972543;28;20057;-78
2023/03/19 14:37:48;;;;;;;0.20;0.10;;;;;;;;;;4961251;28;20128;-76
2023/03/19 14:40:32;;;;;;;1.30;0.55;;;;;;;;;;4970975;28;22391;-78
2023/03/19 14:42:58;;;;;;;0.20;0.20;;;;;;;;;;4977207;28;20053;-78
2023/03/19 14:45:43;;;;;;;0.20;0.15;;;;;;;;;;4971736;28;20086;-77
2023/03/19 14:48:32;;;;;;;0.60;0.40;;;;;;;;;;4975155;28;20034;-78
2023/03/19 14:51:01;;;;;;;0.45;0.20;;;;;;;;;;4960871;28;20244;-78